events-overview

General Smallwood Triathlon-International

 

Overall Women

10/02/2006 09:40PM

** Results are for the private use of participants and are the Intellectual Property of Set Up Events. Unauthorized use of these results is prohibited.

Place Age Cat. NAME CITY/STATE Rank SWIM Rank T1 Rank BIKE Rank T2 Rank RUN PENALTY TIME DQ
127 BETH SHUTTNATRONA HEIGHTS PA300:23:21400:03:12201:06:38600:00:54100:38:5200:02:0002:14:56 
231 KRISTIN MARVINOTTAWA600:24:35100:03:01401:10:47100:00:41300:43:44 02:22:45 
320 AMY ALEXANDERANNAPOLIS MD2200:29:41300:03:08301:09:24400:00:46200:42:05 02:25:02 
436 CHRISTINA KICHULASILVER SPRING MD1400:27:37800:03:47501:10:58700:00:55600:45:49 02:29:04 
525 CARA BRUEANNAPOLIS MD1300:27:34200:03:08601:11:492300:01:19700:46:25 02:30:13 
621 MELISSA HOUGHANNAPOLIS MD200:21:58900:03:481001:17:281600:01:10800:47:15 02:31:38 
730 MICHELLE MCKENNAWOODBRIDGE VA400:23:441200:04:021201:17:463300:01:332000:49:41 02:36:43 
842 KIMBERLEY KRUSEARLINGTON VA2000:29:031000:03:51701:13:472800:01:261700:48:45 02:36:49 
925 JESSICA OLDHAMARLINGTON VA3200:30:335600:06:14901:16:424500:01:52400:44:06 02:39:24 
1025 DELNORA ERICKSONBETHESDA MD1700:28:031300:04:041501:19:04800:01:041200:47:35 02:39:47 
1134 NICOLE SHUEWASHINGTON DC2800:30:00500:03:251401:17:51500:00:501600:48:32 02:40:37 
1232 SHANNON PRENDERGASTOAKTON VA100:21:332600:04:501301:17:502000:01:183400:55:39 02:41:08 
1341 NIQUI JOHNSONFREDERICK MD3800:32:402500:04:50801:14:50300:00:441500:48:30 02:41:32 
1424 SARA HAWKINSARLINGTON VA1000:27:15700:03:452201:22:321800:01:16900:47:23 02:42:10 
1538 LAURA SOMESALEXANDRIA VA1100:27:17600:03:331701:19:365000:02:012500:51:27 02:43:52 
1630 COURTNEY GARTZVIENNA VA3500:31:031800:04:302101:21:523800:01:381300:47:55 02:46:56 
1735 MELISSA ASHBYSPRINGFIELD VA4100:33:293000:05:051101:17:343000:01:282600:51:42 02:49:16 
1840 MARY LYNN HANSENWOODSTOCK MD3700:32:343100:05:072501:24:103500:01:341100:47:28 02:50:52 
1925 BROOKE SCHULERNORTH BETHESDA MD6000:36:302800:04:551601:19:216200:02:331900:49:28 02:52:46 
2020 KRISTINE WONGANNAPOLIS MD2500:29:431400:04:083401:27:032200:01:192100:50:44 02:52:55 
2129 NICOLE THORPEALEXANDRIA VA3100:30:192300:04:453801:27:466800:03:131000:47:24 02:53:25 
2233 ANATHEA POWELLBETHESDA MD1800:28:111100:03:532301:22:566400:02:473600:56:33 02:54:19 
2329 MICHELLE MUNSONOAKTON VA5600:35:027000:07:161801:19:594200:01:402200:51:00 02:54:55 
2436AJENNIFER PARKERANNAPOLIS MD6500:36:492100:04:442001:21:121000:01:052300:51:21 02:55:09 
2538 BECKY SPADALAUREL MD3400:30:476400:06:501901:20:001700:01:143800:56:51 02:55:40 
2620 TARA PLOTINOANNAPOLIS MD5200:34:461500:04:143501:27:122500:01:201400:48:30 02:55:59 
2735 ANNA ATKINSONRESTON VA4200:33:383700:05:312401:23:083400:01:332700:52:52 02:56:39 
2829 GEORGINA NEEDHAMRESTON VA6600:37:313400:05:154001:28:12200:00:41500:45:05 02:56:42 
2933 ANN BENNERBETHESDA MD1500:27:451700:04:163901:28:062900:01:273500:55:57 02:57:28 
3033 BETH FLORESWASHINGTON DC3300:30:334000:05:322601:24:203200:01:304100:58:14 03:00:07 
PlaceAgeCat.NAMECITY/STATERankSWIMRankT1RankBIKERankT2RankRUNPENALTYTIMEDQ
3140 CAROL SHUFORDBETHESDA MD1200:27:287300:08:014101:28:226700:02:562900:53:47 03:00:31 
3226 COURTNEY VANDER VEURFALLS CHURCH VA6200:36:377200:07:303301:26:552600:01:221800:48:49 03:01:12 
3331 JENNIFER GELMANVIENNA VA900:27:114900:05:573701:27:355900:02:154500:59:19 03:02:14 
3434 KRISTA TOWNSENDWASHINGTON DC2700:29:584400:05:484501:30:224900:02:013200:54:13 03:02:20 
3529 MARGIT JOCHMANNRESTON VA6700:37:333600:05:292701:24:223900:01:393300:55:23 03:04:24 
3639 CAROLYN JEFFERSONBOYDS MD6100:36:316100:06:344201:28:475800:02:112400:51:26 03:05:28 
3736 CASSANDRA LORIEBALTIMORE MD2100:29:245500:06:123001:25:185600:02:105301:02:44 03:05:46 
3829 CARRIE TEMPLEARLINGTON VA6900:37:596600:07:003201:26:344600:01:533000:53:47 03:07:11 
3931 RACHEL PUSTILNIKRICHMOND VA2600:29:463300:05:153101:25:441100:01:076401:06:34 03:08:24 
4025AKATHRYN SANCHEZARLINGTON VA3600:31:294200:05:372901:25:084800:02:005801:04:58 03:09:11 
4125 KARA CHAFFINARLINGTON VA2400:29:433200:05:115801:36:274400:01:493700:56:49 03:09:56 
4241 MEGAN HILALOAKTON VA6400:36:485400:06:104901:33:26     03:10:54 
4346 JODIE SHAYBETHESDA MD800:26:352400:04:503601:27:187000:03:276701:08:49 03:10:57 
4438ATAMMY TRAVERSLAPLATA MD4400:33:502200:04:452801:24:242100:01:186501:06:57 03:11:13 
4529 ELIZABETH VOELLERARLINGTON VA3000:30:125700:06:165201:33:555200:02:054400:59:16 03:11:40 
4628 JILLIAN GOODEWASHINGTON DC           03:12:09 
4740 HOLLY GILLUMCOLUMBIA MD5000:34:355800:06:235401:35:186000:02:202800:53:39 03:12:13 
4842 SHEILA LEVERONEOAK HILL VA5400:34:584500:05:524401:29:446100:02:254600:59:47 03:12:44 
4930 STACEY DAUGHTERSWASHINGTON DC1600:27:532700:04:545001:33:415100:02:046601:07:00 03:15:31 
5039 MARY BETH SMITHNEW MARKET MD4300:33:404700:05:546401:41:191500:01:083100:54:01 03:16:00 
5133 LAURA ZWEIGWASHINGTON DC5500:35:014300:05:455301:33:551900:01:174901:00:09 03:16:05 
5234 KRISTINA BRANSTETTERSPRINGFIELD VA7600:42:343800:05:314301:28:475700:02:114000:57:24 03:16:26 
5326 EMILY GILDERSLEEVEARLINGTON VA4500:33:526800:07:025101:33:436500:02:504700:59:56 03:17:22 
5437 MARY PICARDHOLLYWOOD MD4900:34:244800:05:556001:37:014700:01:584801:00:00 03:19:17 
5542 ALEXANDRA KORABLEESBURG VA6300:36:402000:04:324801:33:094000:01:395501:03:58 03:19:56 
5639 SARAH BUNNFAIRFAX VA2900:30:054100:05:346301:41:025400:02:075101:01:12 03:19:57 
5733 KERENSA HADLEYFAIRFAX VA           03:20:27 
5829 CATHERINE WIGGINTONNEW YORK NY7200:39:006500:06:574701:32:251400:01:085001:01:02 03:20:32 
5930 JENNIFER ZHORNEWASHINGTON DC7100:38:517100:07:294601:31:022400:01:205201:01:52 03:20:32 
6029 LIZ SIDOTIWASHINGTON DC2300:29:422900:05:056901:46:063100:01:294300:59:01 03:21:21 
6126 MEGAN HANSONWASHINGTON DC700:25:315900:06:257201:51:141300:01:084200:58:24 03:22:39 
PlaceAgeCat.NAMECITY/STATERankSWIMRankT1RankBIKERankT2RankRUNPENALTYTIMEDQ
6223 JENNIFER PEREGOYSILVER SPRING MD4700:34:046200:06:365501:36:056600:02:515401:03:13 03:22:47 
6341 MARGARET FARRELLKENSINGTON MD5700:35:163500:05:266101:38:105300:02:055701:04:43 03:25:37 
6430 KATHRYN SCHWARZARLINGTON VA4600:34:01        00:02:0003:27:14 
6547 GRACE NOMIYAMAALEXANDRIA VA7500:42:217500:08:305701:36:197100:03:293900:57:04 03:27:42 
6624 ALISON SCHLENGERBURTONSVILLE MD5900:35:341900:04:306201:40:584300:01:486101:05:46 03:28:34 
6727 PAULA FITZGERALDALEXANDRIA VA5100:34:435200:06:006701:43:141200:01:076201:06:17 03:31:19 
6827 GAIL HORTONARLINGTON VA4000:33:117400:08:276501:42:306900:03:275901:05:16 03:32:48 
6926 MELISSA CLARKMCLEAN VA4800:34:185300:06:047101:47:174100:01:395601:04:09 03:33:26 
7024 ELIZABETH NAGORSKIWASHINGTON CA3900:32:546000:06:316801:45:53900:01:046901:11:31 03:37:52 
7132 ANDREA UCKELEWASHINGTON DC7400:41:566700:07:006601:43:046300:02:396001:05:34 03:40:11 
7236AMICHELLE BRENNANFAIRFAX VA6800:37:546300:06:435901:36:313600:01:347101:18:11 03:40:52 
7333 SANDY WEBBEASTON MD7700:49:024600:05:525601:36:155500:02:096801:10:26 03:43:42 
7428 MARIE-LAURE POIREARLINGTON VA7000:38:387600:08:357001:47:163700:01:357001:12:51 03:48:53 
7539 MOLLY MCDONALDBETHESDA MD7300:40:596900:07:087301:53:492700:01:236301:06:31 03:49:49 
7652 DONA DEUTSCHROCKVILLE MD5300:34:533900:05:31100:46:55       
7742 BRETT EMMERSONALEXANDRIA VA1900:28:471600:04:15         
7830 SARAH KINGSTONSILVER SPRING MD5800:35:235000:05:58         
7935 KAREN YANKOSKYFALLS CHURCH VA500:23:575100:05:58         

** Results are for the private use of participants and are the Intellectual Property of Set Up Events. Unauthorized use of these results is prohibited.